createdAt,value
2019-05-22T00:00:41.506Z,3.47
2019-05-22T00:03:27.693Z,4.60
2019-05-22T00:05:58.501Z,1.85
2019-05-22T00:08:27.625Z,2.25
2019-05-22T00:10:58.444Z,5.87
2019-05-22T00:13:34.981Z,1.25
2019-05-22T00:16:04.367Z,3.77
2019-05-22T00:18:33.645Z,3.42
2019-05-22T00:21:04.625Z,2.50
2019-05-22T00:23:35.172Z,1.72
2019-05-22T00:26:05.651Z,2.30
2019-05-22T00:28:36.300Z,3.95
2019-05-22T00:31:05.922Z,5.55
2019-05-22T00:33:36.622Z,2.87
2019-05-22T00:36:06.689Z,3.77
2019-05-22T00:38:37.426Z,1.52
2019-05-22T00:41:07.956Z,2.98
2019-05-22T00:43:41.453Z,4.75
2019-05-22T00:46:12.772Z,4.50
2019-05-22T00:48:46.402Z,2.92
2019-05-22T00:51:20.651Z,1.72
2019-05-22T00:53:55.553Z,1.52
2019-05-22T00:56:28.128Z,3.55
2019-05-22T00:59:17.772Z,1.67
2019-05-22T01:01:51.831Z,1.98
2019-05-22T01:04:26.205Z,5.25
2019-05-22T01:06:58.096Z,1.80
2019-05-22T01:09:32.742Z,1.72
2019-05-22T01:12:02.881Z,1.15
2019-05-22T01:14:42.606Z,4.08
2019-05-22T01:17:04.362Z,1.98
2019-05-22T01:19:34.335Z,2.20
2019-05-22T01:22:05.545Z,2.58
2019-05-22T01:27:04.550Z,5.20
2019-05-22T01:29:34.356Z,1.20
2019-05-22T01:32:06.759Z,2.22
2019-05-22T01:34:37.764Z,4.78
2019-05-22T01:37:08.616Z,4.70
2019-05-22T01:39:48.204Z,1.57
2019-05-22T01:42:22.359Z,2.15
2019-05-22T01:45:04.101Z,2.05
2019-05-22T01:47:42.732Z,1.72
2019-05-22T01:50:16.000Z,1.22
2019-05-22T01:52:48.544Z,3.95
2019-05-22T01:55:19.695Z,2.83
2019-05-22T02:00:21.787Z,0.72
2019-05-22T02:05:21.144Z,2.10
2019-05-22T02:07:50.821Z,1.70
2019-05-22T02:10:26.058Z,0.80
2019-05-22T02:13:02.822Z,1.15
2019-05-22T02:15:33.929Z,2.33
2019-05-22T02:18:07.812Z,2.45
2019-05-22T02:20:38.237Z,3.35
2019-05-22T02:23:08.784Z,3.85
2019-05-22T02:25:38.172Z,3.27
2019-05-22T02:28:09.349Z,1.92
2019-05-22T02:33:10.473Z,1.82
2019-05-22T02:35:40.848Z,3.77
2019-05-22T02:38:10.528Z,3.70
2019-05-22T02:40:42.565Z,2.92
2019-05-22T02:43:12.878Z,1.90
2019-05-22T02:45:42.254Z,1.57
2019-05-22T02:48:12.088Z,2.33
2019-05-22T02:50:42.114Z,3.40
2019-05-22T02:53:13.989Z,0.90
2019-05-22T02:55:43.505Z,1.85
2019-05-22T02:58:13.186Z,2.12
2019-05-22T03:00:57.342Z,3.50
2019-05-22T03:03:27.208Z,2.40
2019-05-22T03:05:56.468Z,2.83
2019-05-22T03:08:35.217Z,3.08
2019-05-22T03:11:07.460Z,3.20
2019-05-22T03:13:59.840Z,1.30
2019-05-22T03:16:38.140Z,3.33
2019-05-22T03:19:09.437Z,2.47
2019-05-22T03:21:40.486Z,4.17
2019-05-22T03:24:09.877Z,4.00
2019-05-22T03:26:42.507Z,2.60
2019-05-22T03:29:13.725Z,2.45
2019-05-22T03:34:13.467Z,2.50
2019-05-22T03:39:13.492Z,3.72
2019-05-22T03:41:43.030Z,2.72
2019-05-22T03:44:13.888Z,2.35
2019-05-22T03:46:46.190Z,3.47
2019-05-22T03:49:29.691Z,1.27
2019-05-22T03:51:50.907Z,1.10
2019-05-22T03:54:22.378Z,2.75
2019-05-22T03:56:53.040Z,2.05
2019-05-22T03:59:22.609Z,1.37
2019-05-22T04:01:52.525Z,1.37
2019-05-22T04:04:36.711Z,3.10
2019-05-22T04:07:07.630Z,6.35
2019-05-22T04:09:39.749Z,0.95
2019-05-22T04:12:10.682Z,2.27
2019-05-22T04:14:40.899Z,4.47
2019-05-22T04:17:12.112Z,3.72
2019-05-22T04:22:13.309Z,2.12
2019-05-22T04:24:43.067Z,1.70
2019-05-22T04:27:12.998Z,3.08
2019-05-22T04:29:43.179Z,3.55
2019-05-22T04:32:33.252Z,5.22
2019-05-22T04:35:03.904Z,3.22
2019-05-22T04:37:33.101Z,4.33
2019-05-22T04:40:25.676Z,2.85
2019-05-22T04:42:57.009Z,5.28
2019-05-22T04:45:26.815Z,3.67
2019-05-22T04:48:02.607Z,2.30
2019-05-22T04:50:32.460Z,4.87
2019-05-22T04:53:02.116Z,3.22
2019-05-22T04:55:33.174Z,4.20
2019-05-22T04:58:10.960Z,2.75
2019-05-22T05:00:41.010Z,1.27
2019-05-22T05:03:12.238Z,3.02
2019-05-22T05:08:14.154Z,3.70
2019-05-22T05:10:47.853Z,5.40
2019-05-22T05:13:17.501Z,4.53
2019-05-22T05:15:46.779Z,2.22
2019-05-22T05:18:16.162Z,5.40
2019-05-22T05:20:45.391Z,3.33
2019-05-22T05:23:15.081Z,2.02
2019-05-22T05:25:44.884Z,1.65
2019-05-22T05:28:16.222Z,1.27
2019-05-22T05:30:45.935Z,1.35
2019-05-22T05:33:15.577Z,4.12
2019-05-22T05:35:45.320Z,3.42
2019-05-22T05:38:16.243Z,3.33
2019-05-22T05:40:46.470Z,5.90
2019-05-22T05:43:16.834Z,1.27
2019-05-22T05:45:48.831Z,1.67
2019-05-22T05:48:20.722Z,1.75
2019-05-22T05:51:12.823Z,1.60
2019-05-22T05:54:01.526Z,4.33
2019-05-22T05:56:33.495Z,8.33
2019-05-22T05:59:04.753Z,2.25
2019-05-22T06:01:39.384Z,2.67
2019-05-22T06:04:09.225Z,1.75
2019-05-22T06:06:44.503Z,2.40
2019-05-22T06:09:16.734Z,2.02
2019-05-22T06:11:49.276Z,4.10
2019-05-22T06:14:31.169Z,5.53
2019-05-22T06:17:25.814Z,2.75
2019-05-22T06:19:59.653Z,1.52
2019-05-22T06:22:29.254Z,1.55
2019-05-22T06:25:03.193Z,4.40
2019-05-22T06:27:35.674Z,1.50
2019-05-22T06:30:11.084Z,3.35
2019-05-22T06:33:08.685Z,3.00
2019-05-22T06:35:38.719Z,2.55
2019-05-22T06:38:38.642Z,2.42
2019-05-22T06:41:08.804Z,2.12
2019-05-22T06:43:41.182Z,2.37
2019-05-22T06:46:11.924Z,0.68
2019-05-22T06:48:41.869Z,1.62
2019-05-22T06:51:19.531Z,2.30
2019-05-22T06:56:10.753Z,2.37
2019-05-22T06:58:39.940Z,1.12
2019-05-22T07:01:09.228Z,3.92
2019-05-22T07:03:38.398Z,1.42
2019-05-22T07:06:07.833Z,0.68
2019-05-22T07:08:37.383Z,1.85
2019-05-22T07:11:06.706Z,4.45
2019-05-22T07:13:35.931Z,1.60
2019-05-22T07:16:05.444Z,2.33
2019-05-22T07:18:34.618Z,1.52
2019-05-22T07:21:04.033Z,1.52
2019-05-22T07:23:35.010Z,1.25
2019-05-22T07:26:06.216Z,1.15
2019-05-22T07:28:36.442Z,0.95
2019-05-22T07:31:07.692Z,2.50
2019-05-22T07:33:37.216Z,1.30
2019-05-22T07:36:10.971Z,1.07
2019-05-22T07:41:07.842Z,4.80
2019-05-22T07:43:41.341Z,1.67
2019-05-22T07:46:09.449Z,3.08
2019-05-22T07:48:39.162Z,2.27
2019-05-22T07:51:10.340Z,0.65
2019-05-22T07:56:11.553Z,2.40
2019-05-22T07:58:41.277Z,2.10
2019-05-22T08:01:11.161Z,0.68
2019-05-22T08:03:43.712Z,0.90
2019-05-22T08:06:13.363Z,0.60
2019-05-22T08:08:44.614Z,1.75
2019-05-22T08:11:14.616Z,1.17
2019-05-22T08:13:45.126Z,1.87
2019-05-22T08:16:16.091Z,0.25
2019-05-22T08:18:46.154Z,2.20
2019-05-22T08:21:16.867Z,0.57
2019-05-22T08:23:46.523Z,1.47
2019-05-22T08:26:16.892Z,0.93
2019-05-22T08:28:47.331Z,1.00
2019-05-22T08:31:18.318Z,3.52
2019-05-22T08:33:48.272Z,1.72
2019-05-22T08:36:18.393Z,0.78
2019-05-22T08:38:48.711Z,1.12
2019-05-22T08:41:20.919Z,1.85
2019-05-22T08:44:13.529Z,2.87
2019-05-22T08:46:22.150Z,1.02
2019-05-22T08:48:52.999Z,1.67
2019-05-22T08:51:22.570Z,2.20
2019-05-22T08:53:53.347Z,2.55
2019-05-22T08:56:23.983Z,0.98
2019-05-22T08:58:54.240Z,2.52
2019-05-22T09:01:24.077Z,3.30
2019-05-22T09:03:53.619Z,0.90
2019-05-22T09:06:23.060Z,1.12
2019-05-22T09:08:52.219Z,1.35
2019-05-22T09:11:21.485Z,0.78
2019-05-22T09:13:50.662Z,0.78
2019-05-22T09:16:19.983Z,2.60
2019-05-22T09:18:49.444Z,2.30
2019-05-22T09:21:18.802Z,1.22
2019-05-22T09:23:48.059Z,1.50
2019-05-22T09:26:18.925Z,1.35
2019-05-22T09:28:48.386Z,5.53
2019-05-22T09:31:18.528Z,1.75
2019-05-22T09:33:48.299Z,2.27
2019-05-22T09:36:18.439Z,3.00
2019-05-22T09:38:51.896Z,1.57
2019-05-22T09:41:19.661Z,5.12
2019-05-22T09:43:48.902Z,0.98
2019-05-22T09:46:18.839Z,0.62
2019-05-22T09:48:48.122Z,2.10
2019-05-22T09:51:17.329Z,2.37
2019-05-22T09:53:48.302Z,1.75
2019-05-22T09:56:18.360Z,2.60
2019-05-22T09:58:47.552Z,0.98
2019-05-22T10:01:17.512Z,1.22
2019-05-22T10:03:47.086Z,2.02
2019-05-22T10:06:16.547Z,2.75
2019-05-22T10:08:45.833Z,0.82
2019-05-22T10:11:15.866Z,1.12
2019-05-22T10:13:45.221Z,1.00
2019-05-22T10:16:14.568Z,0.98
2019-05-22T10:18:44.257Z,0.98
2019-05-22T10:21:14.196Z,1.65
2019-05-22T10:23:45.053Z,1.27
2019-05-22T10:26:14.855Z,1.35
2019-05-22T10:28:44.065Z,0.65
2019-05-22T10:31:16.099Z,0.93
2019-05-22T10:33:44.282Z,1.55
2019-05-22T10:36:14.169Z,1.65
2019-05-22T10:38:43.815Z,3.20
2019-05-22T10:41:13.451Z,1.42
2019-05-22T10:43:43.897Z,1.67
2019-05-22T10:46:13.265Z,2.15
2019-05-22T10:48:42.598Z,1.22
2019-05-22T10:51:11.959Z,0.75
2019-05-22T10:53:41.897Z,3.00
2019-05-22T10:56:11.908Z,1.70
2019-05-22T10:58:41.215Z,3.35
2019-05-22T11:01:10.481Z,4.15
2019-05-22T11:03:39.830Z,2.62
2019-05-22T11:06:09.272Z,1.07
2019-05-22T11:08:39.578Z,1.75
2019-05-22T11:11:09.195Z,1.15
2019-05-22T11:13:39.358Z,1.85
2019-05-22T11:16:10.112Z,1.65
2019-05-22T11:18:39.383Z,1.47
2019-05-22T11:21:08.744Z,0.90
2019-05-22T11:23:51.411Z,2.35
2019-05-22T11:28:37.895Z,1.25
2019-05-22T11:31:08.335Z,2.75
2019-05-22T11:33:37.569Z,7.17
2019-05-22T11:36:07.909Z,4.12
2019-05-22T11:38:37.122Z,2.17
2019-05-22T11:41:07.960Z,0.78
2019-05-22T11:43:37.246Z,5.22
2019-05-22T11:46:06.776Z,3.83
2019-05-22T11:48:36.327Z,1.67
2019-05-22T11:51:05.684Z,1.65
2019-05-22T11:53:35.845Z,2.62
2019-05-22T11:56:05.313Z,4.12
2019-05-22T11:58:34.496Z,4.15
2019-05-22T12:01:03.782Z,4.05
2019-05-22T12:03:34.828Z,1.75
2019-05-22T12:06:04.507Z,2.40
2019-05-22T12:08:33.963Z,1.07
2019-05-22T12:11:03.548Z,0.82
2019-05-22T12:13:34.127Z,1.85
2019-05-22T12:16:04.730Z,2.75
2019-05-22T12:18:35.031Z,1.85
2019-05-22T12:21:04.293Z,3.33
2019-05-22T12:23:34.144Z,0.93
2019-05-22T12:26:03.407Z,3.02
2019-05-22T12:28:32.786Z,6.35
2019-05-22T12:31:02.765Z,1.92
2019-05-22T12:33:32.665Z,1.47
2019-05-22T12:36:02.216Z,0.80
2019-05-22T12:38:32.966Z,4.22
2019-05-22T12:41:04.045Z,1.20
2019-05-22T12:43:34.305Z,2.05
2019-05-22T12:46:04.279Z,1.72
2019-05-22T12:48:34.616Z,2.67
2019-05-22T12:51:04.168Z,2.17
2019-05-22T12:53:34.347Z,1.90
2019-05-22T12:56:03.921Z,1.67
2019-05-22T12:58:33.752Z,11.45
2019-05-22T13:01:03.803Z,2.30
2019-05-22T13:03:35.033Z,1.40
2019-05-22T13:06:05.431Z,2.65
2019-05-22T13:08:35.884Z,1.62
2019-05-22T13:11:06.733Z,3.02
2019-05-22T13:13:37.169Z,1.30
2019-05-22T13:16:07.831Z,1.40
2019-05-22T13:18:37.350Z,4.47
2019-05-22T13:21:08.101Z,2.27
2019-05-22T13:26:08.867Z,1.37
2019-05-22T13:28:39.529Z,1.40
2019-05-22T13:31:09.369Z,1.70
2019-05-22T13:33:40.128Z,1.23
2019-05-22T13:38:40.299Z,0.80
2019-05-22T13:41:10.839Z,1.42
2019-05-22T13:43:40.271Z,1.12
2019-05-22T13:46:09.933Z,2.05
2019-05-22T13:48:39.266Z,2.92
2019-05-22T13:51:10.537Z,3.08
2019-05-22T13:53:41.370Z,1.98
2019-05-22T13:58:39.731Z,1.67
2019-05-22T14:01:09.782Z,2.85
2019-05-22T14:03:39.866Z,1.47
2019-05-22T14:06:09.531Z,1.62
2019-05-22T14:08:38.769Z,2.35
2019-05-22T14:11:08.540Z,2.10
2019-05-22T14:13:38.622Z,3.92
2019-05-22T14:16:07.996Z,1.30
2019-05-22T14:18:37.684Z,2.58
2019-05-22T14:21:06.917Z,3.95
2019-05-22T14:23:36.204Z,2.65
2019-05-22T14:26:05.509Z,1.22
2019-05-22T14:28:36.338Z,1.25
2019-05-22T14:33:34.364Z,1.67
2019-05-22T14:36:04.713Z,2.17
2019-05-22T14:38:34.097Z,3.30
2019-05-22T14:41:04.938Z,2.87
2019-05-22T14:46:03.958Z,1.00
2019-05-22T14:48:33.819Z,2.60
2019-05-22T14:51:02.953Z,3.72
2019-05-22T14:53:33.685Z,1.92
2019-05-22T14:56:03.713Z,2.40
2019-05-22T14:58:34.885Z,2.20
2019-05-22T15:01:05.254Z,1.42
2019-05-22T15:03:34.634Z,2.30
2019-05-22T15:06:04.589Z,3.85
2019-05-22T15:08:33.989Z,3.27
2019-05-22T15:11:03.221Z,2.33
2019-05-22T15:13:32.527Z,1.82
2019-05-22T15:16:04.195Z,3.45
2019-05-22T15:18:33.459Z,6.95
2019-05-22T15:21:05.821Z,2.20
2019-05-22T15:23:35.383Z,3.08
2019-05-22T15:26:04.629Z,3.55
2019-05-22T15:28:34.292Z,1.62
2019-05-22T15:31:03.945Z,1.42
2019-05-22T15:33:35.064Z,2.50
2019-05-22T15:36:08.782Z,1.75
2019-05-22T15:38:41.095Z,1.67
2019-05-22T15:41:11.494Z,2.95
2019-05-22T15:43:41.458Z,1.75
2019-05-22T15:46:12.550Z,3.97
2019-05-22T15:48:43.312Z,1.92
2019-05-22T15:51:13.939Z,2.75
2019-05-22T15:53:47.951Z,1.27
2019-05-22T15:56:18.143Z,1.55
2019-05-22T15:58:50.384Z,2.40
2019-05-22T16:01:22.107Z,2.55
2019-05-22T16:03:51.851Z,2.22
2019-05-22T16:06:23.545Z,3.40
2019-05-22T16:08:53.963Z,2.90
2019-05-22T16:11:25.778Z,2.52
2019-05-22T16:13:56.618Z,3.30
2019-05-22T16:16:26.773Z,4.08
2019-05-22T16:19:00.070Z,5.53
2019-05-22T16:21:29.839Z,4.00
2019-05-22T16:23:59.711Z,3.95
2019-05-22T16:26:29.948Z,3.40
2019-05-22T16:29:00.591Z,4.28
2019-05-22T16:31:31.409Z,5.97
2019-05-22T16:34:01.051Z,5.67
2019-05-22T16:36:30.986Z,4.33
2019-05-22T16:39:00.640Z,4.00
2019-05-22T16:41:31.796Z,3.33
2019-05-22T16:44:01.103Z,7.97
2019-05-22T16:46:31.027Z,5.37
2019-05-22T16:49:00.313Z,3.37
2019-05-22T16:51:31.479Z,3.10
2019-05-22T16:54:07.408Z,2.90
2019-05-22T16:56:39.504Z,2.08
2019-05-22T16:59:10.338Z,3.30
2019-05-22T17:01:57.517Z,2.55
2019-05-22T17:04:12.201Z,4.12
2019-05-22T17:06:43.157Z,2.40
2019-05-22T17:09:13.583Z,2.55
2019-05-22T17:11:43.055Z,2.05
2019-05-22T17:14:14.667Z,1.42
2019-05-22T17:16:44.826Z,2.33
2019-05-22T17:19:26.434Z,2.07
2019-05-22T17:21:45.442Z,1.60
2019-05-22T17:24:15.292Z,2.05
2019-05-22T17:26:44.905Z,0.90
2019-05-22T17:29:14.964Z,1.17
2019-05-22T17:31:44.931Z,1.10
2019-05-22T17:34:33.629Z,1.50
2019-05-22T17:37:09.680Z,4.05
2019-05-22T17:39:41.056Z,4.83
2019-05-22T17:42:13.297Z,7.70
2019-05-22T17:44:46.118Z,5.30
2019-05-22T17:47:17.510Z,2.17
2019-05-22T17:49:47.307Z,1.98
2019-05-22T17:52:20.157Z,4.28
2019-05-22T17:54:51.241Z,1.65
2019-05-22T17:59:51.728Z,7.17
2019-05-22T18:02:22.857Z,1.57
2019-05-22T18:07:22.080Z,2.92
2019-05-22T18:09:51.801Z,5.62
2019-05-22T18:12:22.224Z,1.85
2019-05-22T18:14:51.690Z,2.55
2019-05-22T18:17:24.566Z,5.08
2019-05-22T18:19:53.967Z,4.05
2019-05-22T18:22:23.472Z,3.02
2019-05-22T18:24:52.676Z,4.75
2019-05-22T18:27:25.079Z,4.78
2019-05-22T18:29:53.723Z,6.87
2019-05-22T18:32:23.229Z,11.68
2019-05-22T18:34:54.799Z,7.67
2019-05-22T18:37:23.224Z,10.00
2019-05-22T18:39:52.750Z,7.92
2019-05-22T18:42:23.385Z,6.80
2019-05-22T18:44:52.525Z,8.10
2019-05-22T18:47:22.326Z,14.53
2019-05-22T18:49:53.203Z,14.35
2019-05-22T18:52:22.517Z,9.93
2019-05-22T18:54:51.879Z,14.30
2019-05-22T18:57:22.189Z,11.43
2019-05-22T18:59:51.612Z,17.65
2019-05-22T19:02:21.957Z,16.35
2019-05-22T19:04:51.152Z,13.13
2019-05-22T19:07:20.414Z,15.38
2019-05-22T19:09:49.689Z,20.70
2019-05-22T19:12:19.362Z,38.45
2019-05-22T19:14:49.343Z,13.68
2019-05-22T19:17:18.795Z,15.48
2019-05-22T19:19:49.122Z,14.83
2019-05-22T19:22:18.873Z,19.42
2019-05-22T19:24:47.969Z,22.32
2019-05-22T19:27:17.101Z,18.07
2019-05-22T19:29:46.331Z,15.45
2019-05-22T19:32:16.029Z,12.55
2019-05-22T19:34:45.422Z,19.45
2019-05-22T19:37:14.709Z,13.45
2019-05-22T19:39:44.230Z,28.42
2019-05-22T19:42:13.960Z,44.25
2019-05-22T19:44:43.740Z,34.63
2019-05-22T19:47:13.594Z,68.35
2019-05-22T19:49:43.999Z,18.67
2019-05-22T19:52:14.476Z,26.40
2019-05-22T19:54:44.551Z,30.13
2019-05-22T19:57:13.999Z,36.13
2019-05-22T19:59:43.995Z,34.27
2019-05-22T20:02:15.188Z,24.23
2019-05-22T20:04:46.246Z,21.07
2019-05-22T20:07:15.868Z,24.98
2019-05-22T20:09:46.803Z,33.45
2019-05-22T20:12:17.211Z,34.05
2019-05-22T20:14:48.089Z,33.98
2019-05-22T20:17:17.422Z,40.73
2019-05-22T20:19:46.678Z,44.60
2019-05-22T20:22:15.873Z,40.40
2019-05-22T20:24:45.257Z,41.10
2019-05-22T20:27:14.797Z,44.63
2019-05-22T20:29:44.835Z,43.52
2019-05-22T20:32:14.118Z,46.00
2019-05-22T20:34:43.894Z,49.90
2019-05-22T20:37:13.462Z,47.60
2019-05-22T20:39:42.698Z,40.92
2019-05-22T20:42:12.160Z,32.88
2019-05-22T20:44:42.615Z,35.98
2019-05-22T20:47:11.895Z,35.15
2019-05-22T20:49:44.335Z,27.98
2019-05-22T20:52:14.574Z,32.63
2019-05-22T20:54:45.254Z,26.27
2019-05-22T20:57:19.638Z,24.30
2019-05-22T20:59:47.894Z,20.57
2019-05-22T21:02:20.297Z,20.20
2019-05-22T21:04:51.550Z,17.17
2019-05-22T21:07:26.683Z,12.43
2019-05-22T21:09:56.464Z,20.30
2019-05-22T21:12:26.618Z,18.52
2019-05-22T21:14:56.748Z,14.85
2019-05-22T21:17:26.364Z,21.52
2019-05-22T21:19:56.430Z,21.23
2019-05-22T21:22:27.442Z,25.37
2019-05-22T21:24:56.642Z,43.95
2019-05-22T21:27:26.548Z,47.05
2019-05-22T21:29:56.217Z,40.15
2019-05-22T21:32:25.923Z,35.03
2019-05-22T21:34:56.856Z,33.42
2019-05-22T21:37:26.904Z,36.77
2019-05-22T21:39:56.965Z,30.92
2019-05-22T21:42:26.752Z,30.52
2019-05-22T21:44:57.273Z,32.93
2019-05-22T21:47:26.545Z,37.42
2019-05-22T21:49:55.852Z,31.30
2019-05-22T21:52:25.052Z,37.28
2019-05-22T21:54:54.513Z,38.55
2019-05-22T21:57:23.981Z,28.65
2019-05-22T21:59:53.836Z,24.25
2019-05-22T22:02:27.700Z,38.35
2019-05-22T22:04:56.984Z,26.50
2019-05-22T22:07:27.540Z,22.77
2019-05-22T22:09:59.046Z,26.90
2019-05-22T22:12:29.183Z,26.42
2019-05-22T22:14:58.439Z,27.93
2019-05-22T22:17:30.601Z,24.30
2019-05-22T22:20:00.199Z,24.02
2019-05-22T22:22:30.839Z,22.10
2019-05-22T22:25:01.020Z,26.80
2019-05-22T22:27:31.591Z,25.88
2019-05-22T22:30:02.636Z,24.45
2019-05-22T22:32:32.464Z,22.95
2019-05-22T22:35:01.947Z,23.05
2019-05-22T22:37:32.350Z,21.15
2019-05-22T22:40:02.643Z,22.90
2019-05-22T22:42:36.802Z,22.90
2019-05-22T22:45:07.441Z,21.73
2019-05-22T22:47:38.819Z,20.82
2019-05-22T22:50:09.921Z,16.73
2019-05-22T22:52:40.086Z,18.32
2019-05-22T22:55:13.224Z,19.07
2019-05-22T22:57:42.552Z,19.60
2019-05-22T23:00:15.351Z,21.82
2019-05-22T23:02:46.236Z,21.40
2019-05-22T23:05:17.010Z,20.65
2019-05-22T23:07:48.031Z,18.37
2019-05-22T23:10:19.356Z,20.20
2019-05-22T23:12:49.374Z,22.52
2019-05-22T23:15:19.346Z,21.27
2019-05-22T23:17:49.419Z,22.85
2019-05-22T23:20:17.569Z,23.18
2019-05-22T23:22:45.642Z,20.48
2019-05-22T23:25:17.197Z,22.13
2019-05-22T23:27:46.591Z,25.45
2019-05-22T23:30:15.923Z,17.60
2019-05-22T23:32:46.733Z,22.70
2019-05-22T23:35:17.326Z,25.82
2019-05-22T23:37:46.604Z,16.80
2019-05-22T23:40:18.799Z,17.02
2019-05-22T23:42:48.618Z,15.20
2019-05-22T23:45:20.515Z,16.40
2019-05-22T23:47:53.559Z,22.45
2019-05-22T23:50:23.283Z,19.60
2019-05-22T23:52:52.975Z,20.32
2019-05-22T23:55:23.501Z,17.70
2019-05-22T23:57:53.098Z,18.23
